Estación Meteorológica Peña el Pijo (Robertgarden) [ 11/12/18 21:09:43 CET ]

Fecha Hora Presion(HPa) Temp (°C) Humedad % Rocio (°C) Viento ( m/s) Direccion Lluvia 1Hora(mm) Lluvia 24H(mm) LLuvia Total(mm)
2018-May-23 01:01:43 1008.700 13.1 73 8.4         218.07
2018-May-23 02:01:38 1008.600 12.2 75 7.9         218.07
2018-May-23 03:03:10 1008.300 10.8 78 7.1         218.07
2018-May-23 04:01:32 1008.300 9.9 80 6.6         218.07
2018-May-23 05:01:47 1008.200 9.3 81 6.2         218.07
2018-May-23 06:01:40 1008.200 8.5 82 5.6         218.07
2018-May-23 07:01:41 1008.400 7.8 83 5.1         218.07
2018-May-23 08:01:59 1008.900 9.3 86 7.1         218.07
2018-May-23 09:01:36 1008.900 14.3 82 11.3         218.07
2018-May-23 10:01:58 1009.000 20.1 58 11.5         218.07
2018-May-23 11:01:53 1008.800 24.6 37 8.9         218.07
2018-May-23 12:01:50 1008.700 27.8 29 8.1         218.07
2018-May-23 13:01:53 1008.700 27.5 27 6.7         218.07
2018-May-23 14:01:41 1008.300 27.9 26 6.4         218.07
2018-May-23 15:01:47 1008.500 24.6 29 6.0         218.07
2018-May-23 16:01:43 1009.700 20.5 43 7.1 0.9 N     218.07
2018-May-23 17:01:29 1009.400 17.6 56 8.9         218.07
2018-May-23 18:01:40 1009.100 18.8 53 8.7         218.07
2018-May-23 19:01:47 1008.700 19.9 51 9.5         218.07
2018-May-23 20:01:36 1008.800 19.9 52 9.8         218.07
2018-May-23 21:01:24 1008.800 17.8 57 9.1         218.07
2018-May-23 22:01:36 1009.000 14.9 67 8.8         218.07
2018-May-23 23:01:48 1009.500 12.8 73 8.1         218.07

Temperatura Máxima:27°    Temperatura Mínima:
Presión Máxima:1009.700 Hpa    Presión Mínima:1008.200 Hpa


Volver